Etusivu
METAR-TAF:

METAR-TAF

Lentoasemat :

Varnan lentoasema

Varna, Bulgaria

Leveyspiiri: 43-12N, Pituuspiiri: 027-55E, korkeus merenpinnasta: 41 m

Tämänhetkinen sää

Tämä raportti tehtiin 40 minuuttia sitten, kello 06.00 UTC
Tuuli 14 kn idästä/koillisesta
Lämpötila 7°C
Kosteus 61%
Ilmanpaine 1016 hPa
Näkyvyys 10 km tai enemmän
Muutamia pilviä 3500 ft:n korkeudessa
Hajanaisia pilviä 4500 ft:n korkeudessa

METAR: LBWN 020600Z 06014KT 9999 FEW035 SCT045 07/M00 Q1016 NOSIG

Aika: 09:40 (06:40 UTC)

Sääennuste

Tämä raportti tehtiin 2 tuntia ja 38 minuuttia sitten, kello 04.02 UTC
Ennuste voimassa 02. päivästä klo 00 UTC - 02. päivään klo 24 UTC
Tuuli 10 kn koillisesta
Näkyvyys 10 km tai enemmän
Hajanaisia pilviä 3000 ft:n korkeudessa
Hajonneita pilviä 4500 ft:n korkeudessa
Tulossa
02. päivästä klo 09 UTC - 02. päivään klo 11 UTC
Tuuli 10 kn idästä
Hajanaisia pilviä 4500 ft:n korkeudessa

TAF: LBWN 020402Z 0200/0224 04010KT 9999 SCT030 BKN045 BECMG 0209/0211 10010KT SCT045

Säähavainnot ja -ennusteet yli 4000 lentoasemalta (METAR- ja TAF-raportit).

Käytössä olevat sääasemat on merkitty karttaan keltaisilla ja punaisilla pisteillä.

Aseta hiiri pisteen päälle nähdäksesi sääaseman nimen.

Klikkaa sitten nähdäksesi säähavainnot ja -ennusteet.

Kartan vaihtaminen: klikkaa mustalla rastilla varustettuja vihreitä pisteitä, niin voit zoomata sisään; viivalla varustettua vihreää pistettä, niin voit zoomata ulos tai vihreitä nuolia, niin pääset viereisille kartoille.


METAR-TAF: